Time;durP1;ratioP1;P1;durP2;ratioP2;P2;SDS_P1;SDS_P2;PMS_P1;PMS_P2;Temp;Humidity;BMP_temperature;BMP_pressure;BME280_temperature;BME280_humidity;BME280_pressure;Samples;Min_cycle;Max_cycle;Signal;HPM_P1;HPM_P2
2021/06/13 00:00:52;;;;;;;8.93;6.32;;;;;;;18.52;100.00;96887.13;5029308;28;20081;-59
2021/06/13 00:03:21;;;;;;;8.57;6.72;;;;;;;18.52;100.00;96884.44;5003391;28;20045;-56
2021/06/13 00:05:49;;;;;;;8.30;6.90;;;;;;;18.55;100.00;96887.56;5021881;28;20081;-50
2021/06/13 00:08:17;;;;;;;7.70;6.35;;;;;;;18.52;100.00;96889.78;5027524;28;20069;-51
2021/06/13 00:10:45;;;;;;;8.18;6.90;;;;;;;18.59;100.00;96890.69;5024894;28;20065;-57
2021/06/13 00:13:13;;;;;;;9.77;6.53;;;;;;;18.69;100.00;96884.06;5027385;28;20080;-55
2021/06/13 00:15:41;;;;;;;7.93;6.32;;;;;;;18.61;100.00;96885.97;5024275;28;20085;-57
2021/06/13 00:18:09;;;;;;;11.27;6.28;;;;;;;18.55;100.00;96884.03;5024731;28;20084;-57
2021/06/13 00:20:39;;;;;;;9.55;6.90;;;;;;;18.62;100.00;96885.81;5024995;28;20076;-56
2021/06/13 00:23:07;;;;;;;7.32;6.35;;;;;;;18.54;100.00;96887.75;5026796;28;20318;-55
2021/06/13 00:25:36;;;;;;;8.57;7.00;;;;;;;18.58;100.00;96886.34;5024327;28;20081;-53
2021/06/13 00:28:04;;;;;;;7.07;6.38;;;;;;;18.44;100.00;96893.34;5029292;28;20085;-54
2021/06/13 00:30:32;;;;;;;8.18;6.18;;;;;;;18.58;100.00;96894.38;5023318;28;20407;-56
2021/06/13 00:33:00;;;;;;;7.28;6.38;;;;;;;18.35;100.00;96895.28;5035645;28;20069;-58
2021/06/13 00:35:28;;;;;;;6.88;6.18;;;;;;;18.29;100.00;96893.34;5026388;28;20068;-56
2021/06/13 00:37:58;;;;;;;7.53;6.13;;;;;;;18.29;100.00;96896.00;5021204;28;20462;-58
2021/06/13 00:40:27;;;;;;;8.80;6.97;;;;;;;18.40;100.00;96892.88;5031556;28;20061;-56
2021/06/13 00:42:56;;;;;;;7.68;6.63;;;;;;;18.40;100.00;96895.56;5026620;28;20528;-56
2021/06/13 00:45:24;;;;;;;9.15;6.68;;;;;;;18.28;100.00;96894.34;5021005;28;20065;-56
2021/06/13 00:47:52;;;;;;;8.13;7.15;;;;;;;18.21;100.00;96901.44;5030453;28;20072;-57
2021/06/13 00:50:27;;;;;;;8.65;7.20;;;;;;;18.12;100.00;96900.66;5029761;28;20489;-52
2021/06/13 00:52:54;;;;;;;10.70;7.85;;;;;;;18.17;100.00;96905.47;5020439;28;20576;-55
2021/06/13 00:55:24;;;;;;;11.07;7.68;;;;;;;18.10;100.00;96902.72;5024136;28;20069;-54
2021/06/13 00:57:52;;;;;;;8.38;7.45;;;;;;;18.15;100.00;96894.97;5025611;28;20551;-55
2021/06/13 01:00:21;;;;;;;8.93;8.00;;;;;;;17.97;100.00;96891.81;5028015;28;20079;-56
2021/06/13 01:02:49;;;;;;;9.80;7.38;;;;;;;17.89;100.00;96887.34;5020193;28;20080;-55
2021/06/13 01:05:18;;;;;;;8.80;7.85;;;;;;;17.70;100.00;96885.16;5024567;28;20048;-55
2021/06/13 01:07:49;;;;;;;8.55;7.50;;;;;;;17.74;100.00;96897.97;5020758;28;20496;-57
2021/06/13 01:10:29;;;;;;;9.32;7.85;;;;;;;17.71;100.00;96897.50;5030505;28;20103;-58
2021/06/13 01:13:01;;;;;;;9.57;7.47;;;;;;;17.66;100.00;96903.38;5021189;28;20085;-56
2021/06/13 01:15:33;;;;;;;8.02;7.07;;;;;;;17.50;100.00;96906.16;5024394;28;20441;-57
2021/06/13 01:18:05;;;;;;;7.93;7.13;;;;;;;17.46;100.00;96899.50;5029271;28;20072;-58
2021/06/13 01:20:37;;;;;;;9.82;7.85;;;;;;;17.58;100.00;96902.59;5024525;28;20065;-56
2021/06/13 01:23:25;;;;;;;7.90;7.03;;;;;;;17.40;100.00;96906.38;5018882;28;20517;-56
2021/06/13 01:26:19;;;;;;;9.18;7.80;;;;;;;17.46;100.00;96913.66;5029524;28;20065;-51
2021/06/13 01:29:00;;;;;;;9.43;7.53;;;;;;;17.33;100.00;96914.25;5013162;28;20500;-56
2021/06/13 01:31:30;;;;;;;12.32;7.70;;;;;;;17.47;100.00;96906.50;5022050;28;20065;-54
2021/06/13 01:34:00;;;;;;;11.93;8.18;;;;;;;17.48;100.00;96897.47;5027187;28;20075;-51
2021/06/13 01:36:29;;;;;;;9.25;8.10;;;;;;;17.54;100.00;96896.78;5026628;28;20508;-56
2021/06/13 01:38:58;;;;;;;10.75;8.43;;;;;;;17.63;100.00;96886.91;5028455;28;20528;-54
2021/06/13 01:41:30;;;;;;;13.85;8.70;;;;;;;17.49;100.00;96896.50;5029191;28;20069;-58
2021/06/13 01:44:00;;;;;;;12.35;8.63;;;;;;;17.53;100.00;96895.13;5021741;28;20084;-55
2021/06/13 01:46:31;;;;;;;11.57;8.32;;;;;;;17.45;100.00;96900.53;5027363;28;20527;-53
2021/06/13 01:49:00;;;;;;;8.45;7.63;;;;;;;17.49;100.00;96900.00;5027810;28;20514;-52
2021/06/13 01:51:28;;;;;;;10.57;8.13;;;;;;;17.46;100.00;96899.50;5020541;28;20463;-54
2021/06/13 01:53:56;;;;;;;9.95;7.75;;;;;;;17.49;100.00;96904.50;5019683;28;20065;-56
2021/06/13 01:56:25;;;;;;;9.77;7.93;;;;;;;17.65;100.00;96896.38;5026046;28;20336;-56
2021/06/13 01:58:54;;;;;;;12.75;8.15;;;;;;;17.61;100.00;96891.56;5022259;28;20068;-55
2021/06/13 02:01:26;;;;;;;10.18;7.78;;;;;;;17.62;100.00;96895.88;5020741;28;20065;-53
2021/06/13 02:03:56;;;;;;;12.20;7.20;;;;;;;17.51;100.00;96897.94;5033898;28;20057;-51
2021/06/13 02:06:27;;;;;;;11.85;7.70;;;;;;;17.54;100.00;96894.09;5004986;28;20080;-55
2021/06/13 02:08:56;;;;;;;10.77;8.05;;;;;;;17.53;100.00;96887.13;5018617;28;20041;-54
2021/06/13 02:11:24;;;;;;;10.10;7.72;;;;;;;17.46;100.00;96895.00;5020432;28;20073;-55
2021/06/13 02:13:53;;;;;;;10.57;7.53;;;;;;;17.51;100.00;96895.28;5011235;28;20062;-54
2021/06/13 02:16:24;;;;;;;10.27;7.90;;;;;;;17.61;100.00;96894.22;5026011;28;20513;-52
2021/06/13 02:18:53;;;;;;;8.70;7.45;;;;;;;17.50;100.00;96903.47;5032548;28;20115;-55
2021/06/13 02:21:22;;;;;;;9.88;8.02;;;;;;;17.54;100.00;96904.78;5008596;28;20065;-54
2021/06/13 02:23:50;;;;;;;9.85;8.25;;;;;;;17.56;100.00;96905.44;5033733;28;20466;-54
2021/06/13 02:26:21;;;;;;;12.45;8.88;;;;;;;17.36;100.00;96915.72;5026009;28;20081;-56
2021/06/13 02:28:53;;;;;;;10.73;8.30;;;;;;;17.41;100.00;96907.19;5026134;28;20356;-52
2021/06/13 02:31:26;;;;;;;11.88;7.90;;;;;;;17.13;100.00;96914.84;5014229;28;20076;-54
2021/06/13 02:33:55;;;;;;;13.18;8.52;;;;;;;17.00;100.00;96916.25;5035446;28;20393;-53
2021/06/13 02:36:23;;;;;;;12.05;8.23;;;;;;;16.80;100.00;96913.19;5024463;28;20071;-53
2021/06/13 02:38:53;;;;;;;15.80;8.85;;;;;;;16.71;100.00;96916.00;5036351;28;20104;-53
2021/06/13 02:41:21;;;;;;;13.50;9.02;;;;;;;16.63;100.00;96919.53;5023425;28;20087;-50
2021/06/13 02:43:49;;;;;;;11.52;8.52;;;;;;;16.48;100.00;96921.22;5028073;28;20620;-55
2021/06/13 02:46:17;;;;;;;14.13;9.25;;;;;;;16.40;100.00;96918.59;5029903;28;20069;-53
2021/06/13 02:48:46;;;;;;;11.45;8.40;;;;;;;16.30;100.00;96924.91;5033414;28;20067;-53
2021/06/13 02:51:17;;;;;;;12.00;8.40;;;;;;;16.16;100.00;96920.28;5032884;28;20460;-54
2021/06/13 02:53:48;;;;;;;14.70;9.73;;;;;;;16.24;100.00;96935.41;5028265;28;20742;-52
2021/06/13 02:56:21;;;;;;;12.13;9.15;;;;;;;16.17;100.00;96931.75;5022315;28;20092;-49
2021/06/13 02:58:55;;;;;;;15.38;9.13;;;;;;;16.22;100.00;96940.09;5027574;28;20076;-54
2021/06/13 03:01:23;;;;;;;15.00;9.40;;;;;;;16.24;100.00;96948.72;5021583;28;20076;-55
2021/06/13 03:03:54;;;;;;;13.48;9.85;;;;;;;16.20;100.00;96953.53;5030890;28;20081;-54
2021/06/13 03:06:22;;;;;;;10.88;9.50;;;;;;;16.22;100.00;96942.75;5029807;28;20083;-50
2021/06/13 03:08:50;;;;;;;17.00;9.45;;;;;;;16.17;100.00;96945.06;5030788;28;20065;-57
2021/06/13 03:11:20;;;;;;;13.82;9.10;;;;;;;16.13;100.00;96957.88;5026234;28;20061;-55
2021/06/13 03:13:49;;;;;;;12.77;8.57;;;;;;;16.15;100.00;96963.88;5031721;28;20057;-54
2021/06/13 03:16:18;;;;;;;12.45;9.15;;;;;;;16.23;100.00;96955.88;5026407;28;20520;-52
2021/06/13 03:18:49;;;;;;;11.90;8.80;;;;;;;16.15;100.00;96958.53;5025161;28;20081;-51
2021/06/13 03:21:18;;;;;;;12.90;9.40;;;;;;;16.26;100.00;96960.84;5034475;28;20069;-53
2021/06/13 03:23:47;;;;;;;13.75;9.05;;;;;;;16.31;100.00;96952.38;5025111;28;20065;-53
2021/06/13 03:26:16;;;;;;;13.10;10.10;;;;;;;16.36;100.00;96958.84;5023613;28;20137;-54
2021/06/13 03:28:45;;;;;;;11.27;9.10;;;;;;;16.46;100.00;96963.19;5026667;28;20064;-55
2021/06/13 03:31:13;;;;;;;14.48;9.48;;;;;;;16.40;100.00;96955.84;5023343;28;20085;-52
2021/06/13 03:33:42;;;;;;;16.52;9.93;;;;;;;16.26;100.00;96962.69;5025119;28;20073;-54
2021/06/13 03:36:11;;;;;;;13.82;10.10;;;;;;;16.23;100.00;96969.19;5033045;28;20068;-54
2021/06/13 03:38:41;;;;;;;14.57;9.98;;;;;;;16.41;100.00;96952.19;5026558;28;20536;-56
2021/06/13 03:41:10;;;;;;;12.10;9.45;;;;;;;16.45;100.00;96959.69;5030040;28;20065;-50
2021/06/13 03:43:38;;;;;;;11.77;9.55;;;;;;;16.55;100.00;96965.66;5026550;28;20069;-57
2021/06/13 03:46:10;;;;;;;14.07;9.50;;;;;;;16.56;100.00;96969.16;5027114;28;20088;-55
2021/06/13 03:48:39;;;;;;;10.88;9.35;;;;;;;16.61;100.00;96978.28;5031787;28;20073;-56
2021/06/13 03:51:08;;;;;;;13.60;9.70;;;;;;;16.58;100.00;96969.78;5027391;28;20072;-50
2021/06/13 03:53:46;;;;;;;12.88;9.50;;;;;;;16.71;100.00;96970.09;5021038;28;20061;-52
2021/06/13 03:56:17;;;;;;;11.77;9.60;;;;;;;17.07;100.00;96978.53;5026005;28;20076;-54
2021/06/13 03:58:47;;;;;;;11.52;9.07;;;;;;;17.51;100.00;96974.47;5028280;28;20081;-52
2021/06/13 04:01:16;;;;;;;11.75;8.70;;;;;;;17.41;100.00;96972.03;5025829;28;20085;-55
2021/06/13 04:03:48;;;;;;;12.63;9.10;;;;;;;17.33;100.00;96977.41;5034915;28;20080;-51
2021/06/13 04:06:17;;;;;;;12.27;9.70;;;;;;;17.36;100.00;96978.88;5027376;28;20508;-51
2021/06/13 04:08:45;;;;;;;12.10;9.23;;;;;;;17.47;100.00;96978.50;5031885;28;20096;-50
2021/06/13 04:11:15;;;;;;;15.05;9.60;;;;;;;17.81;100.00;96977.31;5039297;22;20080;-61
2021/06/13 04:13:45;;;;;;;10.60;9.35;;;;;;;17.69;100.00;96984.88;5019620;28;20465;-61
2021/06/13 04:16:14;;;;;;;;;;;;;;;18.62;100.00;96981.16;5016876;28;20085;-60
2021/06/13 04:18:43;;;;;;;11.68;9.27;;;;;;;19.16;100.00;96989.75;5026598;28;19952;-61
2021/06/13 04:21:13;;;;;;;12.35;8.98;;;;;;;19.52;100.00;96991.66;5017371;28;20792;-61
2021/06/13 04:23:42;;;;;;;12.82;8.75;;;;;;;19.80;100.00;96991.78;5024115;28;20065;-61
2021/06/13 04:26:13;;;;;;;12.75;8.73;;;;;;;20.09;100.00;96998.88;5021011;28;20453;-61
2021/06/13 04:28:43;;;;;;;13.02;8.77;;;;;;;20.18;100.00;96991.56;5020641;28;20064;-59
2021/06/13 04:31:14;;;;;;;9.85;7.95;;;;;;;20.18;100.00;97004.13;5015075;28;20608;-61
2021/06/13 04:33:44;;;;;;;14.30;9.18;;;;;;;20.17;100.00;97002.47;5028987;28;20088;-60
2021/06/13 04:36:13;;;;;;;10.30;7.88;;;;;;;20.52;100.00;96995.38;5024198;28;20069;-62
2021/06/13 04:38:42;;;;;;;9.70;7.68;;;;;;;20.29;100.00;96998.25;5018063;28;20543;-62
2021/06/13 04:41:11;;;;;;;9.73;7.55;;;;;;;20.69;100.00;96995.94;5022283;28;20080;-60
2021/06/13 04:43:40;;;;;;;10.52;7.45;;;;;;;20.59;100.00;96994.41;5024712;28;20544;-61
2021/06/13 04:46:10;;;;;;;9.65;7.55;;;;;;;21.22;97.60;96996.25;5019480;28;20081;-62
2021/06/13 04:48:40;;;;;;;10.85;7.18;;;;;;;21.08;93.65;97003.38;5025720;28;20084;-59
2021/06/13 04:51:10;;;;;;;7.95;6.38;;;;;;;20.94;91.04;96996.28;5021771;28;20073;-62
2021/06/13 04:54:18;;;;;;;10.23;7.15;;;;;;;21.32;86.41;97002.91;5026328;28;20060;-62
2021/06/13 04:57:05;;;;;;;7.88;6.32;;;;;;;21.77;79.92;97018.59;5023552;28;20205;-61
2021/06/13 04:59:34;;;;;;;7.90;6.55;;;;;;;21.62;80.51;97018.75;5019566;28;20522;-62
2021/06/13 05:02:03;;;;;;;8.00;6.82;;;;;;;21.55;82.58;97021.41;5021207;28;20489;-61
2021/06/13 05:04:33;;;;;;;7.50;6.25;;;;;;;22.30;73.08;97021.44;5020599;28;20145;-61
2021/06/13 05:07:03;;;;;;;6.75;5.68;;;;;;;21.86;75.28;97021.94;5021319;28;20536;-62
2021/06/13 05:09:32;;;;;;;8.43;6.45;;;;;;;22.50;68.83;97022.28;5023891;28;20065;-62
2021/06/13 05:12:00;;;;;;;11.93;5.70;;;;;;;22.47;70.00;97020.03;5021827;28;20068;-62
2021/06/13 05:14:29;;;;;;;11.20;6.38;;;;;;;22.14;74.38;97017.25;5024023;28;20061;-62
2021/06/13 05:16:57;;;;;;;8.95;6.00;;;;;;;21.89;72.35;97032.28;5017542;28;20549;-62
2021/06/13 05:19:26;;;;;;;7.22;5.70;;;;;;;22.08;73.49;97033.34;5022219;28;20073;-61
2021/06/13 05:21:55;;;;;;;8.43;6.03;;;;;;;22.36;72.00;97036.72;5024574;28;20081;-60
2021/06/13 05:24:24;;;;;;;6.97;5.47;;;;;;;22.20;67.62;97037.97;5020967;28;20544;-62
2021/06/13 05:26:52;;;;;;;11.52;5.20;;;;;;;22.48;63.68;97034.28;5019223;28;20549;-61
2021/06/13 05:29:20;;;;;;;7.53;4.97;;;;;;;22.23;60.97;97040.25;5022009;28;20069;-61
2021/06/13 05:31:49;;;;;;;6.50;4.80;;;;;;;22.77;62.95;97035.72;5024985;28;20072;-61
2021/06/13 05:34:17;;;;;;;7.72;4.90;;;;;;;22.71;63.82;97032.03;5021121;28;20079;-62
2021/06/13 05:36:45;;;;;;;8.57;5.32;;;;;;;22.79;59.02;97039.03;5024518;28;20085;-62
2021/06/13 05:39:15;;;;;;;7.75;4.40;;;;;;;22.33;60.80;97047.06;5023889;28;20077;-60
2021/06/13 05:41:44;;;;;;;5.38;4.28;;;;;;;22.69;60.30;97049.38;5023355;28;20065;-62
2021/06/13 05:44:12;;;;;;;6.43;3.92;;;;;;;22.48;59.38;97053.91;5022484;28;20069;-62
2021/06/13 05:46:40;;;;;;;5.30;3.53;;;;;;;22.43;57.42;97059.06;5024226;28;20206;-60
2021/06/13 05:49:09;;;;;;;6.70;3.60;;;;;;;22.32;54.96;97067.75;5022727;28;20092;-62
2021/06/13 05:51:38;;;;;;;7.50;3.20;;;;;;;21.79;61.54;97071.06;5022776;28;20093;-62
2021/06/13 05:54:06;;;;;;;8.32;3.92;;;;;;;21.81;59.67;97076.22;5023429;28;20077;-62
2021/06/13 05:56:36;;;;;;;6.28;3.35;;;;;;;21.92;58.72;97074.81;5023785;28;20060;-60
2021/06/13 05:59:06;;;;;;;6.00;3.70;;;;;;;21.96;60.37;97071.56;5020945;28;20068;-58
2021/06/13 06:01:34;;;;;;;6.85;3.20;;;;;;;21.68;57.19;97074.34;5020139;28;20065;-61
2021/06/13 06:04:03;;;;;;;5.97;2.97;;;;;;;21.48;58.69;97065.34;5017896;28;20545;-62
2021/06/13 06:06:31;;;;;;;6.57;3.40;;;;;;;20.67;61.95;97079.19;5025613;28;20120;-61
2021/06/13 06:09:00;;;;;;;6.65;3.50;;;;;;;20.13;70.21;97076.97;5021043;28;20077;-61
2021/06/13 06:11:28;;;;;;;6.57;3.42;;;;;;;20.25;66.56;97086.19;5018028;28;20081;-61
2021/06/13 06:13:58;;;;;;;8.27;2.78;;;;;;;19.85;71.29;97091.09;5019781;28;20072;-62
2021/06/13 06:16:27;;;;;;;5.63;2.92;;;;;;;19.98;68.20;97086.91;5022901;28;20058;-62
2021/06/13 06:18:56;;;;;;;7.72;3.10;;;;;;;19.74;66.59;97091.56;5020271;28;20081;-61
2021/06/13 06:21:24;;;;;;;7.13;3.33;;;;;;;20.02;70.93;97093.53;5020470;28;20061;-61
2021/06/13 06:23:53;;;;;;;5.35;3.33;;;;;;;20.26;65.64;97084.34;5024121;28;20517;-62
2021/06/13 06:26:21;;;;;;;4.95;3.30;;;;;;;20.21;71.12;97090.28;5013517;28;20472;-61
2021/06/13 06:28:50;;;;;;;6.45;3.38;;;;;;;20.14;68.18;97084.00;5020893;28;20065;-60
2021/06/13 06:31:20;;;;;;;5.88;3.50;;;;;;;20.28;76.29;97090.34;5019926;28;20191;-62
2021/06/13 06:33:48;;;;;;;5.55;3.42;;;;;;;20.19;75.15;97096.81;5025539;28;20081;-62
2021/06/13 06:36:16;;;;;;;6.95;3.60;;;;;;;20.09;75.60;97089.91;5015168;28;20525;-61
2021/06/13 06:38:45;;;;;;;6.88;3.55;;;;;;;19.90;74.09;97094.03;5022116;28;20517;-61
2021/06/13 06:41:13;;;;;;;6.63;4.03;;;;;;;20.05;77.66;97102.03;5020801;28;20485;-60
2021/06/13 06:43:41;;;;;;;10.15;3.95;;;;;;;20.09;73.05;97095.28;5023306;28;20061;-61
2021/06/13 06:46:10;;;;;;;5.82;4.00;;;;;;;20.43;79.73;97101.81;5020160;28;20084;-61
2021/06/13 06:48:40;;;;;;;8.93;3.83;;;;;;;19.97;72.50;97098.66;5023575;28;20105;-61
2021/06/13 06:51:08;;;;;;;7.68;3.95;;;;;;;20.45;76.35;97107.00;5017543;28;20077;-61
2021/06/13 06:53:37;;;;;;;8.15;4.30;;;;;;;20.84;71.22;97110.06;5018583;28;20451;-62
2021/06/13 06:56:08;;;;;;;6.82;3.90;;;;;;;20.81;71.28;97101.56;5016276;28;20077;-62
2021/06/13 06:58:37;;;;;;;6.10;4.10;;;;;;;20.90;72.11;97113.84;5024950;28;20065;-61
2021/06/13 07:01:06;;;;;;;7.78;4.00;;;;;;;20.96;70.80;97113.06;5024703;28;20078;-57
2021/06/13 07:03:35;;;;;;;9.30;4.53;;;;;;;21.00;75.93;97098.25;5026339;28;20092;-63
2021/06/13 07:06:05;;;;;;;8.73;4.00;;;;;;;20.96;71.94;97110.38;5015354;28;20445;-61
2021/06/13 07:08:34;;;;;;;9.50;4.40;;;;;;;21.10;77.43;97112.13;5033690;28;20490;-61
2021/06/13 07:11:02;;;;;;;8.48;4.68;;;;;;;20.90;74.48;97126.41;5025230;28;20076;-61
2021/06/13 07:13:31;;;;;;;10.25;4.05;;;;;;;20.83;74.88;97115.63;5022037;28;20107;-59
2021/06/13 07:15:59;;;;;;;9.20;4.57;;;;;;;20.74;72.85;97122.97;5025871;28;20102;-61
2021/06/13 07:18:28;;;;;;;8.95;4.72;;;;;;;20.78;76.38;97123.41;5024561;28;20065;-61
2021/06/13 07:20:57;;;;;;;8.68;4.53;;;;;;;20.90;78.30;97135.28;5022384;28;20797;-61
2021/06/13 07:23:26;;;;;;;9.50;4.75;;;;;;;20.85;77.69;97129.66;5023825;28;20073;-60
2021/06/13 07:25:55;;;;;;;10.40;4.82;;;;;;;21.16;73.86;97121.25;5022834;28;20079;-61
2021/06/13 07:28:23;;;;;;;7.70;4.20;;;;;;;21.28;70.97;97125.06;5024379;28;20041;-58
2021/06/13 07:30:52;;;;;;;8.27;4.63;;;;;;;21.63;67.55;97129.63;5028061;28;20081;-59
2021/06/13 07:33:20;;;;;;;6.43;4.20;;;;;;;21.60;68.54;97135.41;5021050;28;20065;-59
2021/06/13 07:35:48;;;;;;;4.95;3.67;;;;;;;21.19;73.65;97138.81;5023609;28;20471;-61
2021/06/13 07:38:17;;;;;;;9.45;4.50;;;;;;;20.85;74.83;97143.91;5024000;28;20065;-61
2021/06/13 07:40:47;;;;;;;9.07;4.25;;;;;;;21.01;72.56;97131.25;5022911;28;20069;-61
2021/06/13 07:43:19;;;;;;;7.35;3.90;;;;;;;22.00;66.84;97126.53;5023329;28;20208;-61
2021/06/13 07:45:48;;;;;;;7.70;4.60;;;;;;;21.27;70.68;97133.31;5029053;28;20076;-61
2021/06/13 07:48:17;;;;;;;10.48;4.78;;;;;;;21.59;65.04;97133.75;5016023;28;20069;-60
2021/06/13 07:50:46;;;;;;;6.30;4.25;;;;;;;21.14;69.63;97127.84;5026245;28;20107;-61
2021/06/13 07:53:14;;;;;;;12.18;4.43;;;;;;;22.01;72.09;97133.53;5025404;28;20471;-61
2021/06/13 07:55:48;;;;;;;6.90;4.18;;;;;;;21.58;68.03;97132.94;5023596;28;20073;-60
2021/06/13 07:58:16;;;;;;;6.85;4.32;;;;;;;21.29;72.21;97129.38;5023768;28;20081;-61
2021/06/13 08:00:45;;;;;;;6.88;4.20;;;;;;;21.82;73.50;97131.59;5028758;28;20077;-61
2021/06/13 08:03:13;;;;;;;5.97;4.15;;;;;;;21.65;70.54;97127.59;5014811;28;20073;-60
2021/06/13 08:05:43;;;;;;;6.93;4.10;;;;;;;21.30;72.66;97131.06;5024927;28;20092;-60
2021/06/13 08:08:11;;;;;;;6.07;3.92;;;;;;;22.10;69.50;97128.00;5023666;28;20076;-60
2021/06/13 08:10:39;;;;;;;6.43;4.22;;;;;;;21.76;71.32;97130.53;5023379;28;20076;-61
2021/06/13 08:13:09;;;;;;;6.93;3.90;;;;;;;21.33;72.14;97122.63;5019441;28;20089;-62
2021/06/13 08:15:39;;;;;;;7.38;4.30;;;;;;;21.98;61.12;97114.31;5021999;28;20085;-59
2021/06/13 08:18:07;;;;;;;5.83;3.97;;;;;;;22.62;63.77;97121.16;5024797;28;20084;-59
2021/06/13 08:20:36;;;;;;;7.57;4.22;;;;;;;22.61;67.14;97119.47;5021796;28;20072;-61
2021/06/13 08:23:04;;;;;;;7.45;3.53;;;;;;;22.82;64.68;97113.94;5023977;28;20057;-61
2021/06/13 08:25:33;;;;;;;6.40;4.10;;;;;;;22.74;56.36;97119.50;5022198;28;20065;-58
2021/06/13 08:28:01;;;;;;;7.03;3.63;;;;;;;22.62;55.38;97118.47;5025911;28;20317;-61
2021/06/13 08:30:31;;;;;;;7.15;4.22;;;;;;;21.96;62.06;97119.91;5016047;28;20408;-58
2021/06/13 08:33:01;;;;;;;5.38;4.05;;;;;;;22.89;59.95;97124.69;5023151;28;20061;-61
2021/06/13 08:35:30;;;;;;;5.25;3.70;;;;;;;22.80;62.41;97129.44;5021785;28;20068;-60
2021/06/13 08:38:01;;;;;;;4.85;3.65;;;;;;;22.49;61.87;97113.88;5023571;28;20084;-60
2021/06/13 08:40:30;;;;;;;6.68;3.65;;;;;;;22.99;60.17;97122.47;5023529;28;20544;-60
2021/06/13 08:42:59;;;;;;;4.65;2.92;;;;;;;22.48;56.51;97121.13;5022578;28;20083;-59
2021/06/13 08:45:33;;;;;;;5.32;3.00;;;;;;;22.22;55.13;97116.50;5022342;28;20132;-60
2021/06/13 08:48:03;;;;;;;6.32;3.80;;;;;;;22.02;64.87;97129.84;5022781;28;20600;-61
2021/06/13 08:50:33;;;;;;;7.10;3.38;;;;;;;22.49;57.57;97128.13;5018316;28;20081;-59
2021/06/13 08:53:03;;;;;;;7.95;3.72;;;;;;;22.70;58.96;97132.53;5019788;28;20069;-61
2021/06/13 08:55:32;;;;;;;6.60;3.20;;;;;;;21.84;62.35;97137.59;5020954;28;20100;-60
2021/06/13 08:58:02;;;;;;;6.18;3.42;;;;;;;21.74;65.35;97142.50;5024566;28;20057;-61
2021/06/13 09:00:32;;;;;;;7.72;3.72;;;;;;;22.15;64.42;97136.31;5018246;28;21394;-60
2021/06/13 09:03:02;;;;;;;7.13;3.90;;;;;;;22.57;60.60;97135.19;5018317;28;20080;-60
2021/06/13 09:05:30;;;;;;;6.07;3.42;;;;;;;22.00;63.01;97136.44;5026601;28;20071;-61
2021/06/13 09:08:00;;;;;;;5.97;3.85;;;;;;;22.78;60.93;97149.50;5024391;28;20143;-60
2021/06/13 09:10:31;;;;;;;7.32;4.32;;;;;;;22.55;54.69;97136.44;5020430;28;20069;-61
2021/06/13 09:13:09;;;;;;;6.22;3.97;;;;;;;22.85;61.84;97148.47;5020348;28;20461;-60
2021/06/13 09:15:41;;;;;;;6.35;4.10;;;;;;;22.35;55.60;97134.53;5023843;28;21371;-60
2021/06/13 09:18:11;;;;;;;4.90;3.72;;;;;;;22.46;54.79;97135.78;5023088;28;20070;-60
2021/06/13 09:20:44;;;;;;;5.32;3.90;;;;;;;22.57;53.62;97134.34;5023759;28;20072;-61
2021/06/13 09:23:14;;;;;;;6.47;4.10;;;;;;;22.75;54.62;97140.00;5020207;28;20071;-60
2021/06/13 09:25:43;;;;;;;6.97;3.80;;;;;;;23.05;56.44;97140.44;5019922;28;20537;-61
2021/06/13 09:28:15;;;;;;;6.95;3.47;;;;;;;22.89;57.99;97136.28;5017268;28;20356;-61
2021/06/13 09:30:46;;;;;;;6.20;3.83;;;;;;;22.98;58.16;97145.00;5021626;28;20081;-61
2021/06/13 09:33:17;;;;;;;4.90;2.83;;;;;;;22.27;55.41;97148.16;5019366;28;20117;-60
2021/06/13 09:35:47;;;;;;;5.82;3.30;;;;;;;22.89;54.05;97146.22;5023670;28;20068;-61
2021/06/13 09:38:19;;;;;;;5.70;3.60;;;;;;;22.74;55.63;97141.81;5019523;28;20567;-60
2021/06/13 09:40:51;;;;;;;4.68;3.20;;;;;;;22.44;54.27;97133.31;5022813;28;20062;-60
2021/06/13 09:43:22;;;;;;;7.15;3.50;;;;;;;22.22;56.61;97140.66;5017263;28;20091;-60
2021/06/13 09:45:54;;;;;;;9.10;3.47;;;;;;;22.55;50.19;97148.03;5020288;28;20112;-60
2021/06/13 09:48:23;;;;;;;5.05;3.33;;;;;;;22.57;51.00;97145.94;5019377;28;20071;-59
2021/06/13 09:50:53;;;;;;;5.10;3.30;;;;;;;22.88;51.31;97142.69;5022720;28;20477;-59
2021/06/13 09:53:25;;;;;;;;;;;;;;;22.90;50.80;97150.56;5018287;28;20524;-60
2021/06/13 09:56:03;;;;;;;5.53;2.60;;;;;;;23.00;47.75;97142.94;5023168;28;19968;-60
2021/06/13 09:58:33;;;;;;;6.53;3.28;;;;;;;23.11;49.71;97146.88;5016021;28;20072;-57
2021/06/13 10:01:10;;;;;;;4.13;2.80;;;;;;;22.85;47.36;97147.63;5019091;28;20074;-59
2021/06/13 10:03:39;;;;;;;4.88;3.38;;;;;;;22.89;47.19;97152.41;5019219;28;20246;-60
2021/06/13 10:06:08;;;;;;;8.10;3.60;;;;;;;22.87;48.61;97143.72;5019664;28;20422;-59
2021/06/13 10:08:37;;;;;;;4.22;3.28;;;;;;;22.48;51.42;97145.31;5018902;28;20076;-60
2021/06/13 10:11:06;;;;;;;5.38;2.90;;;;;;;22.49;53.19;97144.28;5021047;28;20034;-61
2021/06/13 10:13:46;;;;;;;5.75;3.08;;;;;;;22.31;54.19;97145.88;5020999;28;20077;-60
2021/06/13 10:16:27;;;;;;;5.05;3.10;;;;;;;23.08;56.07;97152.66;5021766;28;20092;-60
2021/06/13 10:18:58;;;;;;;8.80;3.25;;;;;;;22.91;49.00;97141.44;5021898;28;20096;-60
2021/06/13 10:21:28;;;;;;;6.55;2.90;;;;;;;23.59;48.30;97144.75;5021039;28;20064;-61
2021/06/13 10:23:58;;;;;;;5.55;2.83;;;;;;;22.68;50.14;97149.91;5016469;28;20101;-60
2021/06/13 10:26:26;;;;;;;4.65;2.85;;;;;;;23.01;49.83;97135.69;5022083;28;20065;-60
2021/06/13 10:28:55;;;;;;;5.38;3.03;;;;;;;22.47;52.76;97137.44;5017538;28;20520;-60
2021/06/13 10:31:24;;;;;;;7.90;3.10;;;;;;;22.17;51.27;97128.88;5004089;28;20080;-60
2021/06/13 10:33:54;;;;;;;6.18;2.90;;;;;;;22.65;48.69;97136.88;5028167;28;20077;-61
2021/06/13 10:36:22;;;;;;;6.15;2.88;;;;;;;23.19;47.80;97141.25;5023395;28;20061;-60
2021/06/13 10:38:51;;;;;;;5.63;2.85;;;;;;;23.30;48.80;97132.59;5019995;28;20069;-60
2021/06/13 10:41:20;;;;;;;5.00;3.08;;;;;;;22.89;47.00;97127.38;5021929;28;20069;-60
2021/06/13 10:43:48;;;;;;;7.78;2.97;;;;;;;22.93;47.41;97126.78;5024478;28;20068;-60
2021/06/13 10:46:18;;;;;;;5.57;2.97;;;;;;;23.83;48.98;97134.38;5023435;28;20081;-58
2021/06/13 10:48:51;;;;;;;4.65;2.80;;;;;;;23.90;47.58;97124.38;5023465;28;20460;-61
2021/06/13 10:51:45;;;;;;;4.57;2.80;;;;;;;23.55;44.08;97131.91;5023717;28;20061;-59
2021/06/13 10:54:25;;;;;;;5.20;2.60;;;;;;;23.30;42.92;97124.50;5029544;28;20069;-61
2021/06/13 10:56:56;;;;;;;4.75;2.63;;;;;;;24.20;44.56;97129.25;5024895;28;20098;-60
2021/06/13 10:59:24;;;;;;;5.07;2.63;;;;;;;23.77;43.90;97132.50;5026416;28;20552;-61
2021/06/13 11:02:04;;;;;;;3.90;2.50;;;;;;;23.24;43.70;97129.91;5025793;28;20069;-61
2021/06/13 11:04:46;;;;;;;6.07;2.95;;;;;;;23.75;43.76;97130.03;5026261;28;20095;-61
2021/06/13 11:07:52;;;;;;;4.35;2.50;;;;;;;24.17;42.39;97125.09;5018418;28;20081;-59
2021/06/13 11:10:27;;;;;;;3.15;2.00;;;;;;;24.11;39.92;97131.34;5025933;28;20077;-57
2021/06/13 11:13:01;;;;;;;3.95;2.63;;;;;;;24.14;45.54;97129.06;5027616;28;20460;-59
2021/06/13 11:16:04;;;;;;;3.88;2.58;;;;;;;23.90;46.63;97125.22;5023570;28;20384;-57
2021/06/13 11:18:40;;;;;;;4.15;2.53;;;;;;;24.31;46.41;97129.38;5024488;28;20314;-60
2021/06/13 11:21:21;;;;;;;5.30;2.55;;;;;;;23.95;41.72;97129.97;5023960;28;20068;-61
2021/06/13 11:23:53;;;;;;;4.57;2.53;;;;;;;24.20;40.99;97134.66;5023631;28;20061;-60
2021/06/13 11:26:37;;;;;;;3.92;2.55;;;;;;;23.81;43.85;97121.13;5025262;28;20069;-60
2021/06/13 11:29:10;;;;;;;3.05;2.22;;;;;;;24.30;42.49;97125.06;5024378;28;20069;-59
2021/06/13 11:31:47;;;;;;;3.17;2.33;;;;;;;23.98;42.15;97132.22;5022455;28;20080;-60
2021/06/13 11:34:16;;;;;;;2.83;2.05;;;;;;;24.35;42.55;97133.31;5019549;28;20105;-59
2021/06/13 11:36:44;;;;;;;5.20;2.47;;;;;;;25.15;42.01;97130.13;5025994;28;23021;-61
2021/06/13 11:39:30;;;;;;;3.75;2.10;;;;;;;24.22;40.80;97129.84;5024902;28;20072;-60
2021/06/13 11:42:15;;;;;;;2.97;2.05;;;;;;;24.85;43.09;97127.25;5018936;28;20072;-60
2021/06/13 11:44:51;;;;;;;3.08;2.10;;;;;;;25.10;41.08;97129.94;5026022;28;20504;-59